Time;durP1;ratioP1;P1;durP2;ratioP2;P2;SDS_P1;SDS_P2;PMS_P1;PMS_P2;Temp;Humidity;BMP_temperature;BMP_pressure;BME280_temperature;BME280_humidity;BME280_pressure;Samples;Min_cycle;Max_cycle;Signal;HPM_P1;HPM_P2
2023/06/03 00:02:13;;;;;;;2.58;1.17;;;12.50;99.90;;;;;;5024127;28;20041;-71
2023/06/03 00:04:42;;;;;;;3.72;1.40;;;12.50;99.90;;;;;;5041309;28;20045;-71
2023/06/03 00:07:08;;;;;;;2.55;1.30;;;12.40;99.90;;;;;;5041329;28;20052;-70
2023/06/03 00:09:34;;;;;;;2.05;1.60;;;12.40;99.90;;;;;;5039021;28;20049;-71
2023/06/03 00:12:00;;;;;;;2.45;1.25;;;12.30;99.90;;;;;;5022900;28;20104;-71
2023/06/03 00:14:26;;;;;;;2.85;1.60;;;12.30;99.90;;;;;;5058264;28;20057;-71
2023/06/03 00:16:52;;;;;;;3.45;1.30;;;12.20;99.90;;;;;;5041205;28;20049;-71
2023/06/03 00:19:18;;;;;;;2.30;1.50;;;12.10;99.90;;;;;;5060797;28;20098;-70
2023/06/03 00:21:45;;;;;;;1.70;1.10;;;12.10;99.90;;;;;;5042019;28;20041;-71
2023/06/03 00:24:19;;;;;;;1.85;1.10;;;12.00;99.90;;;;;;5037870;28;20534;-71
2023/06/03 00:26:45;;;;;;;2.67;1.23;;;11.90;99.90;;;;;;5040399;28;20072;-71
2023/06/03 00:29:11;;;;;;;1.10;1.00;;;11.80;99.90;;;;;;5060939;28;20048;-71
2023/06/03 00:31:36;;;;;;;2.00;1.23;;;11.80;99.90;;;;;;5038130;28;20080;-71
2023/06/03 00:34:02;;;;;;;1.93;1.37;;;11.70;99.90;;;;;;5058940;28;20074;-71
2023/06/03 00:36:28;;;;;;;2.33;1.30;;;11.70;99.90;;;;;;5040925;28;20048;-71
2023/06/03 00:38:54;;;;;;;2.43;1.30;;;11.60;99.90;;;;;;5040896;28;20045;-70
2023/06/03 00:41:19;;;;;;;2.75;1.08;;;11.60;99.90;;;;;;5004621;28;20073;-70
2023/06/03 00:43:45;;;;;;;1.30;1.10;;;11.50;99.90;;;;;;5019430;28;20034;-70
2023/06/03 00:46:13;;;;;;;2.30;1.10;;;11.50;99.90;;;;;;5021251;28;20040;-70
2023/06/03 00:48:39;;;;;;;2.87;1.13;;;11.50;99.90;;;;;;5001109;28;20052;-70
2023/06/03 00:51:06;;;;;;;2.40;1.10;;;11.40;99.90;;;;;;5019702;28;20057;-71
2023/06/03 00:53:32;;;;;;;3.10;1.10;;;11.40;99.90;;;;;;5018204;28;20682;-70
2023/06/03 00:55:59;;;;;;;1.93;1.10;;;11.40;99.90;;;;;;4985678;28;20080;-70
2023/06/03 00:58:24;;;;;;;1.30;1.20;;;11.40;99.90;;;;;;5019007;28;20064;-70
2023/06/03 01:00:50;;;;;;;1.87;1.27;;;11.40;99.90;;;;;;5018040;28;20046;-70
2023/06/03 01:03:19;;;;;;;2.13;1.33;;;11.30;99.90;;;;;;5019661;28;20500;-70
2023/06/03 01:06:06;;;;;;;1.57;1.10;;;11.20;99.90;;;;;;5016482;28;20053;-70
2023/06/03 01:08:43;;;;;;;3.63;1.67;;;11.20;99.90;;;;;;5019066;28;20064;-70
2023/06/03 01:11:20;;;;;;;2.47;1.33;;;11.10;99.90;;;;;;5014121;28;20058;-70
2023/06/03 01:14:03;;;;;;;1.80;1.30;;;11.10;99.90;;;;;;5013354;28;20101;-71
2023/06/03 01:16:32;;;;;;;2.40;1.20;;;11.00;99.90;;;;;;5015009;28;20054;-70
2023/06/03 01:19:00;;;;;;;2.40;1.20;;;11.00;99.90;;;;;;5022813;28;20724;-70
2023/06/03 01:21:34;;;;;;;2.50;1.20;;;11.00;99.90;;;;;;5016159;28;20124;-71
2023/06/03 01:24:00;;;;;;;3.83;1.47;;;10.90;99.90;;;;;;4998985;28;20057;-70
2023/06/03 01:26:28;;;;;;;2.73;1.10;;;10.90;99.90;;;;;;5014289;28;20042;-70
2023/06/03 01:28:54;;;;;;;1.87;1.27;;;10.80;99.90;;;;;;5016476;28;20054;-70
2023/06/03 01:31:20;;;;;;;1.60;1.30;;;10.80;99.90;;;;;;5015082;28;20036;-70
2023/06/03 01:33:46;;;;;;;2.70;1.40;;;10.70;99.90;;;;;;5015366;28;20046;-70
2023/06/03 01:36:13;;;;;;;3.47;1.40;;;10.70;99.90;;;;;;4982130;28;20050;-71
2023/06/03 01:38:39;;;;;;;1.13;1.03;;;10.60;99.90;;;;;;5016588;28;20414;-70
2023/06/03 01:41:06;;;;;;;3.47;1.20;;;10.60;99.90;;;;;;5046442;28;20103;-70
2023/06/03 01:43:32;;;;;;;2.10;1.40;;;10.60;99.90;;;;;;5055685;28;20052;-71
2023/06/03 01:45:58;;;;;;;1.63;1.17;;;10.60;99.90;;;;;;5038194;28;20068;-70
2023/06/03 01:48:24;;;;;;;2.47;1.30;;;10.60;99.90;;;;;;5034943;28;20037;-70
2023/06/03 01:50:50;;;;;;;2.03;1.10;;;10.60;99.90;;;;;;5038625;28;20044;-71
2023/06/03 01:53:16;;;;;;;1.70;1.20;;;10.60;99.90;;;;;;5037127;28;20410;-70
2023/06/03 01:55:41;;;;;;;2.93;1.60;;;10.60;99.90;;;;;;5020901;28;20052;-71
2023/06/03 01:58:07;;;;;;;2.50;1.53;;;10.60;99.90;;;;;;5037150;28;20104;-70
2023/06/03 02:00:33;;;;;;;1.93;1.20;;;10.60;99.90;;;;;;5035217;28;20025;-70
2023/06/03 02:02:58;;;;;;;5.63;1.57;;;10.60;99.90;;;;;;5053814;28;20083;-70
2023/06/03 02:05:24;;;;;;;2.50;1.30;;;10.50;99.90;;;;;;5050857;28;20098;-70
2023/06/03 02:07:50;;;;;;;2.07;1.40;;;10.50;99.90;;;;;;5038573;28;20045;-71
2023/06/03 02:10:15;;;;;;;3.30;1.57;;;10.50;99.90;;;;;;5052467;28;20052;-71
2023/06/03 02:12:41;;;;;;;2.80;1.40;;;10.50;99.90;;;;;;5036071;28;20381;-71
2023/06/03 02:15:07;;;;;;;1.60;1.20;;;10.50;99.90;;;;;;5034128;28;20047;-70
2023/06/03 02:17:33;;;;;;;1.93;1.30;;;10.40;99.90;;;;;;5054778;28;20492;-70
2023/06/03 02:19:59;;;;;;;1.70;1.60;;;10.40;99.90;;;;;;5050825;28;20508;-70
2023/06/03 02:22:26;;;;;;;1.87;1.20;;;10.40;99.90;;;;;;5036910;28;20165;-70
2023/06/03 02:24:53;;;;;;;3.17;1.40;;;10.30;99.90;;;;;;5036431;28;20095;-70
2023/06/03 02:27:24;;;;;;;3.10;1.40;;;10.30;99.90;;;;;;5018194;28;20052;-71
2023/06/03 02:29:50;;;;;;;3.60;1.40;;;10.30;99.90;;;;;;5031490;28;20596;-70
2023/06/03 02:32:20;;;;;;;3.07;1.57;;;10.20;99.90;;;;;;5035152;28;20331;-70
2023/06/03 02:34:48;;;;;;;2.87;1.50;;;10.20;99.90;;;;;;5053877;28;20053;-71
2023/06/03 02:37:15;;;;;;;3.47;1.37;;;10.10;99.90;;;;;;5056165;28;20525;-71
2023/06/03 02:39:42;;;;;;;3.13;1.40;;;10.10;99.90;;;;;;5051063;28;20061;-70
2023/06/03 02:42:09;;;;;;;2.77;1.40;;;10.10;99.90;;;;;;5053925;28;20045;-71
2023/06/03 02:44:35;;;;;;;4.10;1.70;;;10.10;99.90;;;;;;5036111;28;20523;-70
2023/06/03 02:47:00;;;;;;;2.67;1.43;;;10.00;99.90;;;;;;5055135;28;20059;-70
2023/06/03 02:49:26;;;;;;;2.60;1.60;;;9.90;99.90;;;;;;5023332;28;20057;-70
2023/06/03 02:51:52;;;;;;;3.53;1.50;;;9.90;99.90;;;;;;5034617;28;20045;-70
2023/06/03 02:54:17;;;;;;;2.40;1.50;;;9.90;99.90;;;;;;5021017;28;20033;-70
2023/06/03 02:56:43;;;;;;;2.40;1.47;;;9.90;99.90;;;;;;5033850;28;20045;-70
2023/06/03 02:59:10;;;;;;;1.73;1.37;;;9.90;99.90;;;;;;5037941;28;20400;-70
2023/06/03 03:01:37;;;;;;;2.93;1.60;;;9.90;99.90;;;;;;5032501;28;20072;-70
2023/06/03 03:04:03;;;;;;;2.93;1.70;;;9.80;99.90;;;;;;5020339;28;20105;-70
2023/06/03 03:06:29;;;;;;;3.13;1.60;;;9.80;99.90;;;;;;5017127;28;20080;-70
2023/06/03 03:08:55;;;;;;;4.43;1.50;;;9.80;99.90;;;;;;5032995;28;20048;-70
2023/06/03 03:11:21;;;;;;;4.33;1.63;;;9.70;99.90;;;;;;5056977;28;20064;-70
2023/06/03 03:13:47;;;;;;;4.60;1.50;;;9.70;99.90;;;;;;5051212;28;20041;-70
2023/06/03 03:16:15;;;;;;;2.53;1.60;;;9.70;99.90;;;;;;5052154;28;20037;-71
2023/06/03 03:18:41;;;;;;;3.63;1.60;;;9.60;99.90;;;;;;5035100;28;20049;-78
2023/06/03 03:21:07;;;;;;;2.40;1.60;;;9.70;99.90;;;;;;5035230;28;20049;-71
2023/06/03 03:23:33;;;;;;;2.73;1.77;;;9.60;99.90;;;;;;5031216;28;20033;-71
2023/06/03 03:26:03;;;;;;;3.13;1.40;;;9.70;99.90;;;;;;5049480;28;20048;-71
2023/06/03 03:28:28;;;;;;;3.00;1.90;;;9.60;99.90;;;;;;5032558;28;20071;-70
2023/06/03 03:30:57;;;;;;;2.47;1.90;;;9.60;99.90;;;;;;5047178;28;20052;-71
2023/06/03 03:33:24;;;;;;;2.33;1.60;;;9.60;99.90;;;;;;5030987;28;20041;-69
2023/06/03 03:35:50;;;;;;;2.53;1.60;;;9.60;99.90;;;;;;5034251;28;20052;-69
2023/06/03 03:38:17;;;;;;;2.80;1.87;;;9.60;99.90;;;;;;5045031;28;20041;-69
2023/06/03 03:40:43;;;;;;;4.63;1.70;;;9.60;99.90;;;;;;5041825;28;20049;-70
2023/06/03 03:43:18;;;;;;;2.30;1.60;;;9.60;99.90;;;;;;5025601;28;20110;-69
2023/06/03 03:45:44;;;;;;;5.43;1.70;;;9.60;99.90;;;;;;5033635;28;20072;-69
2023/06/03 03:48:15;;;;;;;2.70;1.80;;;9.70;99.90;;;;;;5033564;28;20053;-69
2023/06/03 03:50:52;;;;;;;2.50;1.55;;;9.70;99.90;;;;;;5049154;28;20071;-69
2023/06/03 03:53:23;;;;;;;3.67;1.80;;;9.70;99.90;;;;;;5053384;28;20048;-69
2023/06/03 03:55:50;;;;;;;2.43;1.70;;;9.70;99.90;;;;;;5049905;28;20052;-69
2023/06/03 03:58:29;;;;;;;3.43;1.80;;;9.70;99.90;;;;;;5053999;28;20201;-69
2023/06/03 04:00:59;;;;;;;4.93;2.10;;;9.70;99.90;;;;;;5046609;28;20108;-69
2023/06/03 04:03:25;;;;;;;3.33;1.90;;;9.70;99.90;;;;;;5051347;28;20053;-69
2023/06/03 04:05:53;;;;;;;2.13;1.83;;;9.70;99.90;;;;;;5033138;28;20056;-69
2023/06/03 04:08:39;;;;;;;5.70;2.77;;;9.70;99.90;;;;;;5053830;28;20122;-69
2023/06/03 04:11:19;;;;;;;3.20;1.80;;;9.70;99.90;;;;;;5036401;28;20048;-69
2023/06/03 04:13:44;;;;;;;2.23;1.87;;;9.70;99.90;;;;;;5034387;28;20060;-69
2023/06/03 04:16:12;;;;;;;4.60;2.17;;;9.70;99.90;;;;;;5035775;28;20037;-69
2023/06/03 04:18:41;;;;;;;5.87;2.10;;;9.70;99.90;;;;;;5048443;28;20099;-70
2023/06/03 04:21:14;;;;;;;3.20;2.13;;;9.70;99.90;;;;;;5050157;28;20037;-69
2023/06/03 04:23:40;;;;;;;2.37;1.80;;;9.70;99.90;;;;;;5056130;28;20053;-69
2023/06/03 04:26:06;;;;;;;3.20;1.87;;;9.70;99.90;;;;;;5034502;28;20051;-69
2023/06/03 04:28:32;;;;;;;3.77;2.03;;;9.80;99.90;;;;;;5035201;28;20041;-69
2023/06/03 04:30:58;;;;;;;4.23;2.07;;;9.90;99.90;;;;;;5050092;28;20148;-69
2023/06/03 04:33:23;;;;;;;4.77;2.13;;;9.90;99.90;;;;;;5018649;28;20051;-69
2023/06/03 04:35:50;;;;;;;2.87;1.80;;;9.90;99.90;;;;;;5048867;28;20540;-69
2023/06/03 04:38:15;;;;;;;3.00;1.80;;;9.90;99.90;;;;;;5033148;28;20048;-70
2023/06/03 04:40:41;;;;;;;3.73;1.80;;;9.90;99.90;;;;;;5034980;28;20057;-71
2023/06/03 04:43:07;;;;;;;2.47;1.67;;;10.00;99.90;;;;;;5018277;28;20104;-70
2023/06/03 04:45:34;;;;;;;2.73;1.97;;;10.00;99.90;;;;;;5054234;28;20069;-69
2023/06/03 04:48:01;;;;;;;3.20;1.90;;;10.10;99.90;;;;;;5055152;28;20055;-69
2023/06/03 04:50:34;;;;;;;3.43;2.30;;;10.10;99.90;;;;;;5037826;28;20176;-69
2023/06/03 04:53:00;;;;;;;6.33;2.00;;;10.20;99.90;;;;;;5037067;28;20076;-71
2023/06/03 04:55:26;;;;;;;3.67;1.80;;;10.20;99.90;;;;;;5037324;28;20068;-70
2023/06/03 04:57:55;;;;;;;2.73;1.80;;;10.30;99.90;;;;;;5037654;28;20037;-70
2023/06/03 05:00:21;;;;;;;3.47;2.10;;;10.30;99.90;;;;;;5038026;28;20045;-70
2023/06/03 05:02:54;;;;;;;4.10;1.90;;;10.40;99.90;;;;;;5035156;28;20459;-69
2023/06/03 05:05:24;;;;;;;3.67;1.80;;;10.50;99.90;;;;;;5047710;28;20045;-70
2023/06/03 05:07:51;;;;;;;3.57;1.90;;;10.50;99.90;;;;;;5002779;28;20067;-71
2023/06/03 05:10:17;;;;;;;2.93;1.97;;;10.60;99.90;;;;;;5052487;28;20060;-70
2023/06/03 05:12:43;;;;;;;4.87;2.10;;;10.60;99.90;;;;;;5036991;28;20567;-70
2023/06/03 05:15:09;;;;;;;2.43;1.90;;;10.70;99.90;;;;;;5051196;28;20052;-71
2023/06/03 05:17:36;;;;;;;3.60;1.90;;;10.80;99.90;;;;;;5055295;28;20091;-73
2023/06/03 05:20:04;;;;;;;2.37;1.70;;;10.80;99.90;;;;;;5048502;28;20036;-71
2023/06/03 05:22:30;;;;;;;5.30;2.00;;;10.90;99.90;;;;;;5028771;28;20045;-70
2023/06/03 05:24:56;;;;;;;5.47;2.00;;;10.90;99.90;;;;;;5036261;28;20041;-70
2023/06/03 05:27:21;;;;;;;5.30;1.83;;;11.00;99.90;;;;;;5049434;28;20547;-71
2023/06/03 05:29:47;;;;;;;3.30;1.87;;;11.10;99.90;;;;;;5053789;28;20444;-71
2023/06/03 05:32:13;;;;;;;2.70;1.77;;;11.20;99.90;;;;;;5004295;28;20044;-70
2023/06/03 05:34:38;;;;;;;3.10;2.00;;;11.30;99.90;;;;;;5020258;28;20278;-70
2023/06/03 05:37:04;;;;;;;2.23;1.53;;;11.40;99.90;;;;;;5035622;28;20091;-69
2023/06/03 05:39:30;;;;;;;3.00;1.50;;;11.50;99.90;;;;;;5028079;28;20056;-69
2023/06/03 05:41:56;;;;;;;3.50;1.90;;;11.70;99.90;;;;;;5047595;28;20075;-70
2023/06/03 05:44:21;;;;;;;3.47;1.83;;;11.80;99.90;;;;;;5029012;28;20032;-70
2023/06/03 05:46:47;;;;;;;3.27;1.73;;;11.90;99.90;;;;;;5034579;28;20064;-70
2023/06/03 05:49:13;;;;;;;3.73;1.60;;;12.00;99.90;;;;;;5046101;28;20079;-70
2023/06/03 05:51:38;;;;;;;2.40;1.73;;;12.10;99.90;;;;;;5033966;28;20033;-70
2023/06/03 05:54:04;;;;;;;2.73;1.70;;;12.30;99.90;;;;;;5034690;28;20507;-69
2023/06/03 05:56:30;;;;;;;3.90;1.67;;;12.50;99.90;;;;;;5031395;28;20084;-69
2023/06/03 05:58:58;;;;;;;3.53;1.83;;;12.70;99.90;;;;;;5051161;28;20807;-69
2023/06/03 06:01:23;;;;;;;4.17;1.73;;;12.80;99.90;;;;;;5042516;28;20051;-71
2023/06/03 06:03:49;;;;;;;5.70;1.70;;;13.00;99.90;;;;;;5030805;28;20052;-70
2023/06/03 06:06:15;;;;;;;2.45;1.60;;;13.10;99.90;;;;;;5048923;28;20121;-69
2023/06/03 06:08:42;;;;;;;3.15;1.70;;;13.20;99.90;;;;;;5048470;28;20040;-73
2023/06/03 06:11:09;;;;;;;3.42;1.85;;;13.20;99.90;;;;;;5053827;28;20130;-71
2023/06/03 06:13:34;;;;;;;3.83;1.70;;;13.20;99.90;;;;;;5045896;28;20057;-70
2023/06/03 06:16:04;;;;;;;3.00;1.60;;;13.20;99.90;;;;;;5016844;28;20642;-71
2023/06/03 06:18:30;;;;;;;4.00;1.70;;;13.30;99.90;;;;;;5051566;28;20464;-72
2023/06/03 06:20:57;;;;;;;3.17;1.65;;;13.30;99.90;;;;;;5048189;28;20052;-70
2023/06/03 06:23:22;;;;;;;4.90;1.60;;;13.40;99.90;;;;;;5031778;28;20052;-70
2023/06/03 06:25:50;;;;;;;3.47;1.45;;;13.50;99.90;;;;;;5033584;28;20076;-72
2023/06/03 06:28:20;;;;;;;3.05;1.33;;;13.60;99.90;;;;;;5015023;28;20056;-70
2023/06/03 06:30:46;;;;;;;2.33;1.55;;;13.70;99.90;;;;;;5031874;28;20053;-71
2023/06/03 06:33:15;;;;;;;3.53;1.58;;;13.70;99.90;;;;;;5051599;28;20548;-70
2023/06/03 06:35:41;;;;;;;3.83;2.00;;;13.80;99.90;;;;;;5035260;28;20043;-69
2023/06/03 06:38:07;;;;;;;3.20;1.40;;;13.80;99.90;;;;;;5015735;28;20042;-69
2023/06/03 06:40:34;;;;;;;3.47;1.50;;;14.10;99.90;;;;;;5028648;28;20053;-70
2023/06/03 06:43:01;;;;;;;3.58;1.60;;;14.20;99.90;;;;;;5015301;28;20046;-69
2023/06/03 06:45:29;;;;;;;6.10;1.60;;;14.40;99.90;;;;;;5046671;28;20033;-70
2023/06/03 06:48:05;;;;;;;2.90;1.38;;;14.60;99.90;;;;;;5039831;28;20171;-69
2023/06/03 06:50:37;;;;;;;4.00;2.03;;;14.70;99.90;;;;;;5040046;28;20039;-70
2023/06/03 06:53:03;;;;;;;3.67;1.40;;;14.60;99.90;;;;;;5036446;28;20061;-69
2023/06/03 06:55:32;;;;;;;2.00;1.40;;;14.70;99.90;;;;;;5040052;28;20041;-69
2023/06/03 06:57:57;;;;;;;5.22;1.67;;;14.70;99.90;;;;;;5056262;28;20363;-69
2023/06/03 07:00:23;;;;;;;4.20;1.52;;;14.90;99.90;;;;;;5054921;28;20052;-70
2023/06/03 07:02:49;;;;;;;4.50;1.40;;;15.10;99.90;;;;;;5036866;28;20057;-69
2023/06/03 07:05:15;;;;;;;2.70;1.48;;;15.20;99.90;;;;;;5036538;28;20116;-70
2023/06/03 07:07:41;;;;;;;3.08;1.52;;;15.30;99.90;;;;;;5052602;28;20101;-69
2023/06/03 07:10:07;;;;;;;2.40;1.40;;;15.50;99.90;;;;;;5053374;28;20084;-70
2023/06/03 07:12:36;;;;;;;5.03;1.70;;;15.60;99.90;;;;;;5034349;28;20094;-70
2023/06/03 07:15:02;;;;;;;7.25;1.65;;;15.60;99.90;;;;;;5053131;28;20142;-70
2023/06/03 07:17:27;;;;;;;4.32;1.42;;;15.40;99.90;;;;;;5015551;28;20041;-70
2023/06/03 07:19:53;;;;;;;4.50;1.40;;;15.30;99.90;;;;;;5053045;28;20045;-69
2023/06/03 07:22:19;;;;;;;7.68;1.80;;;15.20;99.90;;;;;;5032148;28;20155;-69
2023/06/03 07:24:45;;;;;;;5.30;1.92;;;15.30;99.90;;;;;;5035018;28;20113;-69
2023/06/03 07:27:20;;;;;;;2.97;1.38;;;15.60;99.90;;;;;;5049830;28;20071;-69
2023/06/03 07:29:46;;;;;;;3.00;1.23;;;16.00;99.90;;;;;;5028168;28;20045;-68
2023/06/03 07:32:14;;;;;;;4.82;1.25;;;16.40;96.00;;;;;;5035621;28;20071;-69
2023/06/03 07:34:40;;;;;;;2.58;1.55;;;16.70;93.70;;;;;;5034342;28;20059;-69
2023/06/03 07:37:11;;;;;;;3.03;0.93;;;17.00;87.00;;;;;;5036129;28;20045;-69
2023/06/03 07:39:37;;;;;;;4.32;1.10;;;17.20;82.20;;;;;;5001329;28;20515;-69
2023/06/03 07:42:09;;;;;;;3.50;1.20;;;17.40;79.00;;;;;;5037525;28;20051;-69
2023/06/03 07:44:44;;;;;;;1.90;1.20;;;17.40;73.40;;;;;;5057924;28;20465;-69
2023/06/03 07:47:15;;;;;;;2.15;1.20;;;17.60;71.00;;;;;;5050286;28;20522;-69
2023/06/03 07:49:44;;;;;;;1.92;0.90;;;17.90;72.20;;;;;;5036373;28;20119;-69
2023/06/03 07:52:16;;;;;;;3.65;0.93;;;18.00;68.80;;;;;;5029618;28;20087;-69
2023/06/03 07:54:42;;;;;;;2.08;1.00;;;18.10;67.10;;;;;;5049885;28;20053;-69
2023/06/03 07:57:07;;;;;;;1.40;0.90;;;18.20;65.60;;;;;;5013050;28;20060;-69
2023/06/03 07:59:34;;;;;;;1.92;0.80;;;18.30;64.30;;;;;;5011700;28;20093;-69
2023/06/03 08:02:00;;;;;;;1.40;1.10;;;18.40;63.70;;;;;;5036836;28;20037;-69
2023/06/03 08:04:35;;;;;;;1.27;1.00;;;18.60;63.20;;;;;;5040294;28;21644;-69
2023/06/03 08:07:02;;;;;;;1.67;1.00;;;18.80;63.10;;;;;;5016843;28;20112;-69
2023/06/03 08:09:33;;;;;;;2.05;1.20;;;18.90;63.00;;;;;;5037097;28;20037;-72
2023/06/03 08:12:08;;;;;;;2.33;1.08;;;18.90;62.80;;;;;;5024560;28;20099;-69
2023/06/03 08:14:39;;;;;;;3.05;0.90;;;18.90;62.30;;;;;;5048792;28;20409;-70
2023/06/03 08:17:12;;;;;;;2.93;1.00;;;19.00;60.70;;;;;;5047688;28;20052;-69
2023/06/03 08:19:38;;;;;;;3.70;1.00;;;19.10;61.70;;;;;;5032416;28;20059;-69
2023/06/03 08:22:36;;;;;;;2.17;1.15;;;19.30;61.60;;;;;;5050645;28;20053;-69
2023/06/03 08:25:02;;;;;;;2.22;1.00;;;19.50;60.80;;;;;;5040108;28;20055;-69
2023/06/03 08:27:31;;;;;;;1.75;0.88;;;19.50;59.40;;;;;;5033030;28;20041;-69
2023/06/03 08:29:57;;;;;;;1.67;1.20;;;19.70;60.30;;;;;;5048821;28;20052;-69
2023/06/03 08:32:23;;;;;;;3.92;1.20;;;19.80;59.00;;;;;;5033968;28;20057;-69
2023/06/03 08:34:49;;;;;;;3.10;1.20;;;19.90;58.70;;;;;;5030032;28;21981;-69
2023/06/03 08:37:14;;;;;;;1.63;0.90;;;19.80;58.50;;;;;;5037054;28;20074;-69
2023/06/03 08:39:40;;;;;;;3.28;1.05;;;19.90;58.60;;;;;;5036710;28;20060;-69
2023/06/03 08:42:07;;;;;;;1.10;0.90;;;20.00;58.00;;;;;;5057984;28;20040;-69
2023/06/03 08:44:47;;;;;;;2.70;1.10;;;20.00;56.90;;;;;;5053941;28;20095;-69
2023/06/03 08:47:20;;;;;;;3.17;1.17;;;19.90;56.70;;;;;;5022250;28;20139;-70
2023/06/03 08:49:59;;;;;;;3.67;1.08;;;20.00;56.50;;;;;;5038624;28;20045;-70
2023/06/03 08:52:30;;;;;;;1.85;0.98;;;20.20;56.40;;;;;;5054117;28;20084;-70
2023/06/03 08:55:00;;;;;;;2.83;0.95;;;20.40;56.20;;;;;;5022401;28;20156;-71
2023/06/03 08:57:31;;;;;;;2.00;0.90;;;20.40;54.50;;;;;;5038920;28;20067;-69
2023/06/03 09:00:00;;;;;;;2.22;0.88;;;20.40;54.40;;;;;;5021309;28;20049;-69
2023/06/03 09:02:27;;;;;;;1.20;1.00;;;20.30;53.70;;;;;;5036588;28;20575;-70
2023/06/03 09:04:55;;;;;;;6.50;2.05;;;19.90;53.60;;;;;;5038083;28;20045;-70
2023/06/03 09:07:22;;;;;;;3.30;1.13;;;19.50;53.30;;;;;;5056858;28;20472;-69
2023/06/03 09:09:52;;;;;;;2.45;0.95;;;19.00;54.10;;;;;;5055299;28;20037;-70
2023/06/03 09:12:19;;;;;;;1.10;0.82;;;18.70;54.90;;;;;;5040196;28;20120;-69
2023/06/03 09:14:47;;;;;;;3.10;0.90;;;18.60;55.60;;;;;;5039357;28;20068;-70
2023/06/03 09:17:13;;;;;;;3.30;0.88;;;18.50;56.30;;;;;;5058058;28;20076;-70
2023/06/03 09:19:39;;;;;;;2.10;1.00;;;18.40;57.00;;;;;;5040374;28;20496;-70
2023/06/03 09:22:05;;;;;;;3.65;1.17;;;18.30;56.70;;;;;;5015149;28;20052;-70
2023/06/03 09:24:31;;;;;;;3.42;1.20;;;18.30;56.20;;;;;;5058763;28;20074;-70
2023/06/03 09:26:57;;;;;;;1.45;1.10;;;18.50;56.00;;;;;;5038087;28;20049;-70
2023/06/03 09:29:23;;;;;;;1.98;1.00;;;18.60;55.70;;;;;;5040171;28;20067;-70
2023/06/03 09:31:49;;;;;;;1.73;1.20;;;18.80;55.60;;;;;;5038648;28;20052;-70
2023/06/03 09:34:16;;;;;;;4.45;1.15;;;19.20;56.20;;;;;;5057018;28;20190;-70
2023/06/03 09:36:46;;;;;;;2.13;1.05;;;19.60;55.70;;;;;;5037329;28;20495;-70
2023/06/03 09:39:16;;;;;;;3.03;1.00;;;19.80;54.70;;;;;;5047910;28;20067;-70
2023/06/03 09:41:42;;;;;;;1.10;1.00;;;20.10;54.50;;;;;;5041009;28;20053;-70
2023/06/03 09:44:10;;;;;;;2.15;0.95;;;20.10;53.90;;;;;;5039010;28;20033;-70
2023/06/03 09:46:36;;;;;;;2.13;1.00;;;20.30;54.10;;;;;;5038124;28;20057;-70
2023/06/03 09:49:14;;;;;;;0.90;0.90;;;20.40;54.00;;;;;;5014334;28;20041;-69
2023/06/03 09:51:48;;;;;;;2.60;1.38;;;20.60;53.30;;;;;;5039093;28;20104;-70
2023/06/03 09:54:15;;;;;;;2.78;1.30;;;20.90;53.70;;;;;;5059706;28;20055;-70
2023/06/03 09:56:42;;;;;;;1.83;1.10;;;21.00;53.60;;;;;;5035077;28;20036;-69
2023/06/03 09:59:17;;;;;;;2.17;1.38;;;21.00;53.00;;;;;;5040717;28;20044;-70
2023/06/03 10:01:47;;;;;;;1.77;0.90;;;21.00;52.20;;;;;;5020843;28;20048;-70
2023/06/03 10:04:22;;;;;;;1.77;1.02;;;21.10;53.70;;;;;;5055016;28;20037;-70
2023/06/03 10:07:09;;;;;;;1.70;0.90;;;21.20;52.80;;;;;;5056012;28;20072;-70
2023/06/03 10:09:35;;;;;;;3.90;1.10;;;21.40;52.80;;;;;;5023634;28;20513;-70
2023/06/03 10:12:02;;;;;;;4.22;1.23;;;21.40;52.20;;;;;;5059517;28;20094;-70
2023/06/03 10:14:27;;;;;;;2.33;1.08;;;21.50;52.10;;;;;;5059726;28;20025;-70
2023/06/03 10:17:13;;;;;;;2.30;1.00;;;21.40;52.00;;;;;;5028505;28;20659;-70
2023/06/03 10:19:43;;;;;;;1.80;1.00;;;21.30;51.10;;;;;;5062314;28;20052;-70
2023/06/03 10:22:12;;;;;;;1.48;1.02;;;21.30;52.20;;;;;;5060048;28;20037;-70
2023/06/03 10:24:40;;;;;;;1.08;0.90;;;21.20;51.50;;;;;;5040676;28;20052;-70
2023/06/03 10:27:07;;;;;;;3.20;0.90;;;21.30;52.20;;;;;;5053468;28;20042;-70
2023/06/03 10:29:33;;;;;;;2.83;1.15;;;21.60;52.20;;;;;;5051438;28;20630;-70
2023/06/03 10:32:04;;;;;;;1.98;1.00;;;21.60;51.60;;;;;;5031093;28;20041;-70
2023/06/03 10:34:34;;;;;;;2.33;1.17;;;21.70;51.40;;;;;;5047664;28;20512;-71
2023/06/03 10:37:02;;;;;;;4.03;1.00;;;21.70;50.90;;;;;;5049451;28;20287;-70
2023/06/03 10:39:32;;;;;;;1.77;1.00;;;21.70;51.10;;;;;;5043153;28;20039;-71
2023/06/03 10:41:59;;;;;;;4.07;0.98;;;21.50;51.00;;;;;;5034153;28;20107;-70
2023/06/03 10:44:26;;;;;;;4.15;1.13;;;21.20;51.50;;;;;;5038736;28;20096;-70
2023/06/03 10:47:18;;;;;;;2.05;1.17;;;21.00;50.70;;;;;;5058856;28;20412;-71
2023/06/03 10:49:46;;;;;;;;;;;20.90;50.40;;;;;;5055094;28;20033;-71
2023/06/03 10:52:39;;;;;;;2.03;1.00;;;20.60;50.10;;;;;;5052955;28;19920;-71
2023/06/03 10:55:27;;;;;;;3.15;1.10;;;20.60;51.90;;;;;;5037239;28;20057;-70
2023/06/03 10:58:03;;;;;;;5.78;1.45;;;20.90;51.70;;;;;;5054859;28;20053;-70
2023/06/03 11:00:51;;;;;;;2.85;1.20;;;21.20;51.50;;;;;;5038211;28;20126;-71
2023/06/03 11:03:18;;;;;;;2.10;1.10;;;21.50;51.10;;;;;;5055550;28;20045;-70
2023/06/03 11:05:45;;;;;;;2.30;1.00;;;21.70;51.90;;;;;;5036834;28;20155;-71
2023/06/03 11:08:11;;;;;;;4.60;1.10;;;21.80;50.80;;;;;;5038166;28;20041;-72
2023/06/03 11:10:37;;;;;;;3.40;1.10;;;22.10;51.30;;;;;;5052784;28;20041;-70
2023/06/03 11:13:06;;;;;;;2.17;0.90;;;22.20;51.20;;;;;;5042384;28;20049;-70
2023/06/03 11:16:00;;;;;;;2.00;0.98;;;22.30;50.50;;;;;;5032053;28;20055;-71
2023/06/03 11:18:27;;;;;;;3.10;1.15;;;22.20;49.90;;;;;;5032878;28;20044;-68
2023/06/03 11:20:53;;;;;;;2.28;1.00;;;22.00;50.10;;;;;;5019806;28;20041;-70
2023/06/03 11:23:45;;;;;;;2.35;1.48;;;21.80;50.20;;;;;;5061758;28;20047;-70
2023/06/03 11:26:35;;;;;;;1.33;1.00;;;21.80;50.20;;;;;;5056242;28;20033;-70
2023/06/03 11:29:05;;;;;;;2.30;1.10;;;22.00;50.30;;;;;;5051551;28;20041;-71
2023/06/03 11:31:33;;;;;;;2.13;1.00;;;22.30;51.00;;;;;;5044332;28;20033;-70
2023/06/03 11:34:22;;;;;;;1.55;0.90;;;22.50;51.10;;;;;;5046154;28;20128;-70
2023/06/03 11:36:53;;;;;;;4.93;1.33;;;22.50;49.30;;;;;;5046750;28;20053;-71
2023/06/03 11:39:20;;;;;;;1.73;1.23;;;22.50;48.90;;;;;;5039203;28;20060;-70
2023/06/03 11:42:03;;;;;;;1.52;1.10;;;22.60;49.30;;;;;;5020657;28;20104;-70
2023/06/03 11:44:30;;;;;;;3.50;1.30;;;22.80;49.70;;;;;;5039032;28;20045;-71
2023/06/03 11:46:56;;;;;;;2.78;1.30;;;22.90;49.70;;;;;;5038641;28;20429;-70
2023/06/03 11:49:22;;;;;;;2.22;1.20;;;22.90;48.90;;;;;;5036209;28;20065;-70
2023/06/03 11:51:52;;;;;;;2.58;1.13;;;22.50;48.10;;;;;;5012822;28;20065;-70
2023/06/03 11:54:20;;;;;;;3.60;1.48;;;22.10;48.40;;;;;;5042913;28;20040;-70
2023/06/03 11:56:47;;;;;;;2.15;1.00;;;22.00;48.60;;;;;;5015307;28;20063;-70
2023/06/03 11:59:15;;;;;;;1.95;1.20;;;21.90;49.20;;;;;;5032799;28;20049;-70
2023/06/03 12:02:02;;;;;;;2.35;0.93;;;21.80;48.70;;;;;;5030002;28;20143;-70
2023/06/03 12:04:29;;;;;;;2.67;1.20;;;22.00;49.70;;;;;;5014404;28;20048;-70
2023/06/03 12:06:56;;;;;;;3.40;1.10;;;22.10;49.10;;;;;;5007285;28;20059;-70
2023/06/03 12:09:27;;;;;;;3.17;0.90;;;22.30;49.90;;;;;;5016752;28;20046;-71
2023/06/03 12:11:55;;;;;;;3.13;1.10;;;22.70;49.90;;;;;;5043634;28;20900;-70
2023/06/03 12:14:38;;;;;;;1.30;0.90;;;22.90;49.30;;;;;;5023265;28;20047;-70
2023/06/03 12:17:22;;;;;;;3.00;1.00;;;23.10;49.40;;;;;;5019925;28;20090;-70
2023/06/03 12:19:49;;;;;;;3.58;1.10;;;23.10;48.70;;;;;;5035905;28;20053;-70
2023/06/03 12:22:22;;;;;;;3.08;1.00;;;23.00;48.70;;;;;;5031460;28;20057;-70
2023/06/03 12:24:48;;;;;;;4.03;0.98;;;23.00;48.60;;;;;;5025631;28;20108;-71
2023/06/03 12:27:17;;;;;;;2.90;1.33;;;22.90;48.00;;;;;;5014799;28;20084;-71
2023/06/03 12:29:45;;;;;;;1.50;1.00;;;22.70;48.20;;;;;;5037003;28;20046;-70
2023/06/03 12:32:11;;;;;;;2.88;1.27;;;22.30;47.30;;;;;;5038319;28;20503;-70
2023/06/03 12:34:38;;;;;;;5.05;1.30;;;22.00;47.50;;;;;;5006296;28;20100;-70
2023/06/03 12:37:05;;;;;;;1.60;1.13;;;21.90;47.70;;;;;;5041176;28;20045;-70
2023/06/03 12:39:49;;;;;;;3.20;1.02;;;21.90;47.50;;;;;;5036806;28;20064;-70
2023/06/03 12:42:21;;;;;;;4.60;1.30;;;22.00;47.80;;;;;;5022193;28;20095;-70
2023/06/03 12:44:52;;;;;;;2.40;1.33;;;21.80;47.80;;;;;;5022749;28;20080;-70
2023/06/03 12:47:19;;;;;;;;;;;21.90;47.80;;;;;;5039082;28;20052;-70
2023/06/03 12:50:03;;;;;;;2.17;1.10;;;21.90;48.00;;;;;;5021048;28;19960;-68
2023/06/03 12:52:31;;;;;;;2.38;1.15;;;21.80;48.00;;;;;;5038712;28;20084;-69
2023/06/03 12:54:57;;;;;;;3.38;1.20;;;21.90;48.60;;;;;;5021926;28;20072;-70
2023/06/03 12:57:22;;;;;;;1.80;1.10;;;22.10;48.70;;;;;;5032458;28;20068;-71